Time;durP1;ratioP1;P1;durP2;ratioP2;P2;SDS_P1;SDS_P2;PMS_P1;PMS_P2;Temp;Humidity;BMP_temperature;BMP_pressure;BME280_temperature;BME280_humidity;BME280_pressure;Samples;Min_cycle;Max_cycle;Signal;HPM_P1;HPM_P2
2023/04/30 00:01:26;;;;;;;1.83;1.33;;;;;;;12.90;60.00;98905.97;5131940;27;20671;-76
2023/04/30 00:03:53;;;;;;;2.60;1.70;;;;;;;12.84;60.40;98911.63;5131798;27;20272;-76
2023/04/30 00:06:20;;;;;;;2.30;1.77;;;;;;;12.74;60.69;98911.59;5131882;27;20672;-76
2023/04/30 00:08:46;;;;;;;3.07;1.93;;;;;;;12.76;60.00;98909.69;5131980;27;20263;-76
2023/04/30 00:11:14;;;;;;;1.40;1.13;;;;;;;12.73;60.67;98909.97;5131679;27;20269;-76
2023/04/30 00:13:42;;;;;;;2.10;1.73;;;;;;;12.60;61.25;98911.94;5131729;27;20197;-76
2023/04/30 00:16:09;;;;;;;2.03;1.67;;;;;;;12.67;60.63;98905.34;5131435;27;20286;-76
2023/04/30 00:18:36;;;;;;;2.63;1.70;;;;;;;12.66;61.12;98903.72;5131729;27;20228;-76
2023/04/30 00:21:04;;;;;;;3.20;1.50;;;;;;;12.62;61.45;98912.59;5131620;27;20222;-76
2023/04/30 00:23:30;;;;;;;3.07;2.00;;;;;;;12.65;61.06;98904.66;5131772;27;20211;-76
2023/04/30 00:25:57;;;;;;;2.17;1.67;;;;;;;12.69;60.70;98906.03;5131398;27;20217;-76
2023/04/30 00:28:25;;;;;;;2.83;1.73;;;;;;;12.61;60.35;98909.22;5131254;27;20209;-76
2023/04/30 00:30:52;;;;;;;2.63;2.03;;;;;;;12.55;60.28;98901.25;5131417;27;20239;-76
2023/04/30 00:33:19;;;;;;;3.07;2.10;;;;;;;12.51;60.57;98904.97;5131507;27;20378;-76
2023/04/30 00:35:46;;;;;;;3.03;2.47;;;;;;;12.57;60.10;98897.63;5131317;27;20220;-76
2023/04/30 00:38:13;;;;;;;2.93;1.83;;;;;;;12.43;60.61;98909.00;5130507;27;20201;-76
2023/04/30 00:40:42;;;;;;;2.83;1.80;;;;;;;12.49;60.52;98912.00;5131042;27;20224;-76
2023/04/30 00:43:08;;;;;;;2.70;1.60;;;;;;;12.43;60.11;98909.00;5131539;27;20693;-76
2023/04/30 00:45:37;;;;;;;2.67;1.73;;;;;;;12.42;60.40;98904.00;5131133;27;20220;-76
2023/04/30 00:48:04;;;;;;;1.47;1.37;;;;;;;12.43;60.44;98903.06;5131143;27;20216;-75
2023/04/30 00:50:31;;;;;;;4.23;2.07;;;;;;;12.42;59.38;98907.41;5130856;27;20220;-76
2023/04/30 00:53:00;;;;;;;2.17;1.70;;;;;;;12.33;60.73;98905.56;5131109;27;20212;-76
2023/04/30 00:55:27;;;;;;;2.10;1.50;;;;;;;12.39;60.34;98912.78;5131030;27;20273;-76
2023/04/30 00:57:54;;;;;;;2.60;1.67;;;;;;;12.39;59.85;98907.66;5131097;27;20258;-76
2023/04/30 01:00:22;;;;;;;2.97;1.77;;;;;;;12.38;60.13;98905.19;5130668;27;20228;-76
2023/04/30 01:02:50;;;;;;;1.30;1.03;;;;;;;12.33;60.72;98908.13;5131019;27;20260;-76
2023/04/30 01:05:17;;;;;;;4.10;1.63;;;;;;;12.39;60.44;98902.53;5130906;27;20716;-76
2023/04/30 01:07:45;;;;;;;2.50;1.77;;;;;;;12.34;60.35;98902.09;5130465;27;20276;-76
2023/04/30 01:10:13;;;;;;;4.50;1.93;;;;;;;12.29;60.59;98900.84;5130975;27;20284;-76
2023/04/30 01:12:46;;;;;;;2.13;1.87;;;;;;;12.28;60.88;98897.47;5130752;28;20750;-76
2023/04/30 01:15:22;;;;;;;3.37;1.93;;;;;;;12.29;60.69;98901.63;5130682;27;20216;-76
2023/04/30 01:17:56;;;;;;;4.77;1.73;;;;;;;12.30;60.34;98895.56;5130515;27;20295;-76
2023/04/30 01:20:26;;;;;;;2.17;1.60;;;;;;;12.26;60.28;98895.97;5130463;28;20236;-76
2023/04/30 01:23:11;;;;;;;4.30;2.00;;;;;;;12.24;60.67;98891.75;5130524;28;20326;-76
2023/04/30 01:26:07;;;;;;;2.73;1.67;;;;;;;12.29;59.47;98896.50;5130578;28;20224;-76
2023/04/30 01:28:37;;;;;;;3.33;1.93;;;;;;;12.29;60.36;98888.03;5130511;28;20205;-76
2023/04/30 01:31:12;;;;;;;2.40;1.80;;;;;;;12.26;60.13;98894.22;5130492;27;20220;-76
2023/04/30 01:33:39;;;;;;;2.07;1.60;;;;;;;12.29;60.66;98891.38;5130726;28;20206;-76
2023/04/30 01:36:33;;;;;;;2.13;1.90;;;;;;;12.37;59.18;98889.00;5130652;28;20282;-76
2023/04/30 01:39:14;;;;;;;3.37;1.87;;;;;;;12.37;60.01;98877.94;5127284;27;20232;-76
2023/04/30 01:41:54;;;;;;;3.37;1.93;;;;;;;12.40;59.69;98883.63;5130488;28;20249;-76
2023/04/30 01:44:36;;;;;;;2.47;1.80;;;;;;;12.41;58.96;98872.41;5130522;27;20356;-76
2023/04/30 01:47:06;;;;;;;2.30;1.60;;;;;;;12.45;60.06;98870.44;5130575;28;20203;-76
2023/04/30 01:49:51;;;;;;;2.27;1.50;;;;;;;12.42;59.30;98871.50;5132513;27;20284;-75
2023/04/30 01:52:26;;;;;;;2.33;1.50;;;;;;;12.50;59.30;98870.03;5134404;27;20279;-76
2023/04/30 01:54:59;;;;;;;4.60;1.77;;;;;;;12.57;59.05;98873.72;5134809;27;20264;-76
2023/04/30 01:57:32;;;;;;;2.90;1.93;;;;;;;12.54;59.29;98863.72;5134366;27;20198;-76
2023/04/30 02:00:00;;;;;;;2.23;1.80;;;;;;;12.46;59.67;98870.28;5134323;27;20289;-76
2023/04/30 02:02:27;;;;;;;3.57;2.33;;;;;;;12.38;60.57;98869.31;5134247;27;20201;-76
2023/04/30 02:04:54;;;;;;;2.80;1.90;;;;;;;12.30;60.83;98876.81;5134054;27;20231;-76
2023/04/30 02:07:39;;;;;;;2.60;2.03;;;;;;;12.24;61.89;98873.00;5134167;27;20197;-76
2023/04/30 02:10:06;;;;;;;2.97;1.90;;;;;;;12.07;66.41;98871.00;5133997;27;20270;-76
2023/04/30 02:12:33;;;;;;;2.07;1.63;;;;;;;12.08;66.21;98877.78;5134609;27;20264;-76
2023/04/30 02:15:02;;;;;;;2.83;1.93;;;;;;;11.95;66.00;98877.94;5134268;27;20293;-76
2023/04/30 02:17:30;;;;;;;2.50;1.77;;;;;;;11.74;67.64;98886.41;5133774;27;20204;-76
2023/04/30 02:19:56;;;;;;;2.40;1.70;;;;;;;11.61;70.45;98884.97;5134101;27;20735;-76
2023/04/30 02:22:23;;;;;;;2.43;1.73;;;;;;;11.50;72.16;98881.50;5133802;27;20200;-76
2023/04/30 02:24:50;;;;;;;2.97;2.00;;;;;;;11.47;73.61;98884.31;5134118;27;20216;-76
2023/04/30 02:27:20;;;;;;;3.00;1.93;;;;;;;11.28;76.45;98872.13;5133746;27;20932;-76
2023/04/30 02:29:47;;;;;;;3.00;1.80;;;;;;;11.13;79.78;98875.91;5134293;27;20221;-76
2023/04/30 02:32:15;;;;;;;2.67;1.63;;;;;;;11.06;81.94;98875.56;5133710;27;20218;-76
2023/04/30 02:34:42;;;;;;;1.93;1.70;;;;;;;10.92;84.02;98878.38;5133511;27;20293;-76
2023/04/30 02:37:09;;;;;;;4.13;2.10;;;;;;;10.71;87.91;98877.47;5133605;27;20283;-75
2023/04/30 02:39:36;;;;;;;5.47;2.10;;;;;;;10.52;90.30;98870.38;5133302;27;20645;-76
2023/04/30 02:42:03;;;;;;;2.30;2.03;;;;;;;10.34;93.38;98872.56;5133406;27;20281;-76
2023/04/30 02:44:30;;;;;;;3.83;2.07;;;;;;;10.21;95.22;98872.66;5133357;27;20754;-76
2023/04/30 02:46:57;;;;;;;3.87;2.20;;;;;;;10.15;96.34;98873.06;5133750;27;20893;-76
2023/04/30 02:49:25;;;;;;;6.40;2.00;;;;;;;10.10;98.20;98870.88;5133366;27;20727;-76
2023/04/30 02:51:52;;;;;;;2.83;2.00;;;;;;;10.05;98.83;98872.94;5133616;27;20295;-76
2023/04/30 02:54:19;;;;;;;3.03;2.17;;;;;;;10.06;99.19;98877.13;5133085;27;20217;-76
2023/04/30 02:56:46;;;;;;;9.97;1.97;;;;;;;10.00;99.65;98882.69;5133479;27;20611;-75
2023/04/30 02:59:13;;;;;;;2.80;2.13;;;;;;;9.91;100.00;98875.69;5132784;27;20247;-76
2023/04/30 03:01:40;;;;;;;4.23;2.27;;;;;;;9.86;98.69;98882.88;5132111;27;20207;-76
2023/04/30 03:04:07;;;;;;;3.10;1.90;;;;;;;9.96;97.07;98882.09;5133261;27;20211;-76
2023/04/30 03:06:35;;;;;;;5.03;2.23;;;;;;;10.08;93.40;98888.03;5133374;27;20241;-76
2023/04/30 03:09:02;;;;;;;3.00;2.00;;;;;;;10.12;92.52;98889.47;5133229;27;20273;-76
2023/04/30 03:11:29;;;;;;;6.83;2.00;;;;;;;10.11;94.73;98897.22;5133266;27;20620;-76
2023/04/30 03:13:56;;;;;;;3.30;2.37;;;;;;;10.10;96.42;98886.19;5132692;27;20193;-76
2023/04/30 03:16:23;;;;;;;2.50;2.30;;;;;;;10.09;96.69;98894.78;5132780;27;20687;-76
2023/04/30 03:18:50;;;;;;;2.70;1.97;;;;;;;10.02;98.21;98887.69;5132607;27;20691;-76
2023/04/30 03:21:16;;;;;;;4.13;2.53;;;;;;;10.03;98.03;98889.31;5132903;27;20228;-76
2023/04/30 03:23:45;;;;;;;9.83;2.30;;;;;;;10.03;97.96;98895.22;5132846;27;20209;-76
2023/04/30 03:26:11;;;;;;;3.40;1.93;;;;;;;9.98;99.27;98898.13;5132478;27;20707;-76
2023/04/30 03:28:38;;;;;;;3.13;2.20;;;;;;;9.91;99.99;98894.38;5132547;27;20203;-76
2023/04/30 03:31:05;;;;;;;5.67;2.00;;;;;;;9.90;99.51;98889.41;5132773;27;20219;-76
2023/04/30 03:33:32;;;;;;;4.57;2.57;;;;;;;9.94;99.29;98891.59;5132417;27;20193;-76
2023/04/30 03:35:59;;;;;;;3.37;2.00;;;;;;;9.97;99.40;98903.34;5132439;27;20216;-76
2023/04/30 03:38:26;;;;;;;4.67;2.50;;;;;;;9.88;100.00;98896.34;5132553;27;20285;-76
2023/04/30 03:40:54;;;;;;;5.93;2.93;;;;;;;9.84;100.00;98897.50;5132139;27;20229;-76
2023/04/30 03:43:21;;;;;;;11.33;2.37;;;;;;;9.87;100.00;98904.94;5132319;27;20224;-76
2023/04/30 03:45:48;;;;;;;3.00;2.10;;;;;;;9.90;100.00;98904.72;5132143;27;20216;-76
2023/04/30 03:48:15;;;;;;;5.33;3.03;;;;;;;9.91;100.00;98906.34;5132199;27;20197;-76
2023/04/30 03:50:42;;;;;;;5.03;2.80;;;;;;;9.95;100.00;98902.66;5132550;27;20228;-76
2023/04/30 03:53:09;;;;;;;3.67;2.30;;;;;;;10.03;100.00;98899.53;5132021;27;20668;-76
2023/04/30 03:55:35;;;;;;;5.30;3.20;;;;;;;10.12;100.00;98899.69;5132407;27;20228;-76
2023/04/30 03:58:04;;;;;;;6.90;3.03;;;;;;;10.01;100.00;98907.31;5132144;27;20241;-76
2023/04/30 04:00:31;;;;;;;3.80;2.73;;;;;;;10.01;100.00;98897.09;5131879;27;20319;-76
2023/04/30 04:02:58;;;;;;;4.60;2.87;;;;;;;10.04;100.00;98903.72;5131556;27;20196;-77
2023/04/30 04:05:25;;;;;;;4.60;2.90;;;;;;;10.04;100.00;98901.16;5132303;27;20224;-76
2023/04/30 04:07:52;;;;;;;6.10;3.53;;;;;;;10.03;100.00;98894.41;5131915;27;20555;-76
2023/04/30 04:10:19;;;;;;;3.77;2.63;;;;;;;10.04;100.00;98906.28;5131900;27;20269;-76
2023/04/30 04:12:46;;;;;;;4.93;2.80;;;;;;;10.09;100.00;98909.28;5131877;27;20203;-76
2023/04/30 04:15:14;;;;;;;5.57;3.07;;;;;;;10.13;100.00;98901.31;5131568;27;20811;-76
2023/04/30 04:17:41;;;;;;;5.57;3.33;;;;;;;10.24;100.00;98899.69;5133625;27;20209;-77
2023/04/30 04:20:09;;;;;;;4.83;2.90;;;;;;;10.12;100.00;98909.06;5131885;27;20232;-76
2023/04/30 04:22:35;;;;;;;6.20;3.47;;;;;;;10.07;100.00;98906.06;5131911;27;20579;-76
2023/04/30 04:25:02;;;;;;;5.93;3.07;;;;;;;10.13;100.00;98916.63;5131533;27;20277;-76
2023/04/30 04:27:29;;;;;;;5.63;3.10;;;;;;;10.18;100.00;98906.91;5131602;27;20555;-76
2023/04/30 04:29:56;;;;;;;7.57;3.23;;;;;;;10.17;100.00;98912.09;5131416;27;20724;-76
2023/04/30 04:32:24;;;;;;;5.50;3.17;;;;;;;10.28;100.00;98919.03;5131330;27;20231;-76
2023/04/30 04:34:53;;;;;;;4.57;3.10;;;;;;;10.42;100.00;98917.06;5131289;27;20225;-76
2023/04/30 04:37:19;;;;;;;6.77;3.43;;;;;;;10.67;100.00;98919.53;5131222;27;20275;-76
2023/04/30 04:39:46;;;;;;;6.73;3.07;;;;;;;10.78;100.00;98922.09;5131181;27;20281;-76
2023/04/30 04:42:15;;;;;;;4.90;2.80;;;;;;;10.89;100.00;98929.75;5131155;27;20200;-76
2023/04/30 04:44:42;;;;;;;4.83;3.57;;;;;;;11.01;100.00;98923.72;5131009;27;20298;-76
2023/04/30 04:47:11;;;;;;;5.00;3.00;;;;;;;11.13;100.00;98931.38;5131181;27;20295;-76
2023/04/30 04:49:40;;;;;;;5.73;3.40;;;;;;;11.26;100.00;98937.19;5131364;27;20227;-76
2023/04/30 04:52:07;;;;;;;4.20;2.70;;;;;;;11.55;100.00;98933.16;5131039;27;20201;-76
2023/04/30 04:54:34;;;;;;;5.23;3.53;;;;;;;11.73;100.00;98941.13;5133471;27;20240;-77
2023/04/30 04:57:01;;;;;;;7.33;3.63;;;;;;;11.83;100.00;98941.19;5132622;27;20204;-76
2023/04/30 04:59:29;;;;;;;8.33;3.63;;;;;;;12.04;100.00;98941.25;5132704;27;20226;-78
2023/04/30 05:01:56;;;;;;;6.17;3.30;;;;;;;12.41;100.00;98938.28;5134349;27;20202;-78
2023/04/30 05:04:23;;;;;;;7.60;3.70;;;;;;;12.82;100.00;98939.16;5134545;27;20309;-78
2023/04/30 05:06:51;;;;;;;6.13;3.67;;;;;;;13.06;100.00;98946.53;5134588;27;20665;-77
2023/04/30 05:09:17;;;;;;;5.30;3.20;;;;;;;13.10;100.00;98947.91;5135004;27;20229;-77
2023/04/30 05:11:45;;;;;;;5.93;3.70;;;;;;;13.14;100.00;98946.69;5134423;27;20573;-78
2023/04/30 05:14:11;;;;;;;5.17;3.43;;;;;;;13.43;100.00;98940.84;5134489;27;20230;-78
2023/04/30 05:16:38;;;;;;;6.00;3.77;;;;;;;13.60;99.25;98940.22;5136243;27;20202;-77
2023/04/30 05:19:05;;;;;;;9.60;3.63;;;;;;;13.84;99.65;98942.38;5136118;27;20203;-78
2023/04/30 05:21:32;;;;;;;6.13;3.97;;;;;;;13.96;97.42;98943.06;5136372;28;20231;-78
2023/04/30 05:24:00;;;;;;;5.10;3.47;;;;;;;14.13;95.11;98952.66;5135054;27;20199;-78
2023/04/30 05:26:27;;;;;;;6.47;3.73;;;;;;;13.82;92.92;98954.56;5134792;28;20200;-77
2023/04/30 05:28:54;;;;;;;5.87;3.57;;;;;;;13.77;93.03;98951.59;5133785;28;20671;-78
2023/04/30 05:31:21;;;;;;;6.27;3.33;;;;;;;14.21;93.57;98955.34;5135385;28;20196;-78
2023/04/30 05:33:48;;;;;;;10.83;3.63;;;;;;;14.39;91.79;98957.22;5134910;28;20199;-78
2023/04/30 05:36:15;;;;;;;11.13;4.00;;;;;;;14.55;89.37;98951.56;5136345;28;20221;-77
2023/04/30 05:38:41;;;;;;;7.20;4.00;;;;;;;14.71;91.45;98962.06;5134840;28;20243;-77
2023/04/30 05:41:11;;;;;;;5.40;3.50;;;;;;;14.64;89.56;98956.66;5134555;27;20232;-78
2023/04/30 05:43:37;;;;;;;5.17;3.60;;;;;;;14.60;90.61;98952.75;5133870;28;20204;-79
2023/04/30 05:46:05;;;;;;;6.20;3.77;;;;;;;14.59;89.38;98953.69;5134881;28;20223;-78
2023/04/30 05:48:31;;;;;;;6.23;3.90;;;;;;;14.55;90.09;98947.22;5135221;28;20208;-79
2023/04/30 05:50:58;;;;;;;6.00;3.67;;;;;;;14.47;91.68;98950.44;5132987;28;20599;-78
2023/04/30 05:53:25;;;;;;;5.03;3.20;;;;;;;14.62;93.25;98953.41;5135581;28;20223;-78
2023/04/30 05:55:52;;;;;;;7.37;3.83;;;;;;;14.61;91.05;98951.81;5134849;28;20216;-78
2023/04/30 05:58:20;;;;;;;7.40;3.50;;;;;;;14.70;91.25;98961.25;5134673;28;20205;-79
2023/04/30 06:00:49;;;;;;;5.73;3.40;;;;;;;14.74;90.26;98959.19;5133653;28;20232;-78
2023/04/30 06:03:16;;;;;;;5.77;3.53;;;;;;;14.86;91.76;98959.84;5133118;28;20252;-78
2023/04/30 06:05:43;;;;;;;5.60;3.53;;;;;;;14.61;92.87;98961.28;5133050;27;20645;-78
2023/04/30 06:08:10;;;;;;;7.77;3.40;;;;;;;14.79;92.85;98969.09;5133491;27;20292;-77
2023/04/30 06:10:37;;;;;;;6.43;4.10;;;;;;;14.92;91.47;98967.00;5132388;28;20220;-78
2023/04/30 06:13:04;;;;;;;5.27;3.20;;;;;;;14.88;87.49;98973.38;5134453;28;20209;-77
2023/04/30 06:15:33;;;;;;;5.57;3.63;;;;;;;14.96;91.21;98970.13;5134779;27;20221;-77
2023/04/30 06:18:00;;;;;;;5.90;3.40;;;;;;;15.13;90.83;98970.16;5134170;28;20626;-77
2023/04/30 06:20:27;;;;;;;5.17;3.53;;;;;;;15.45;90.62;98976.66;5134009;28;20234;-78
2023/04/30 06:22:53;;;;;;;4.97;3.50;;;;;;;15.37;84.55;98984.28;5133666;28;20225;-78
2023/04/30 06:25:20;;;;;;;6.00;3.60;;;;;;;15.22;85.25;98985.72;5134535;28;20212;-78
2023/04/30 06:27:47;;;;;;;5.67;3.53;;;;;;;15.28;84.58;98985.16;5133254;28;20201;-78
2023/04/30 06:30:14;;;;;;;7.40;3.83;;;;;;;15.28;86.75;98980.00;5132622;27;20284;-78
2023/04/30 06:32:43;;;;;;;7.27;3.53;;;;;;;15.88;85.15;98982.88;5133866;28;20531;-77
2023/04/30 06:35:10;;;;;;;7.27;3.97;;;;;;;16.06;83.02;98981.13;5133770;27;20273;-77
2023/04/30 06:37:37;;;;;;;6.10;3.63;;;;;;;16.42;79.46;98983.66;5138092;27;20650;-78
2023/04/30 06:40:05;;;;;;;6.27;3.70;;;;;;;16.67;78.99;98978.66;5136658;27;20224;-78
2023/04/30 06:42:33;;;;;;;5.47;3.73;;;;;;;16.35;78.25;98974.91;5136986;27;20329;-78
2023/04/30 06:45:01;;;;;;;5.37;3.30;;;;;;;15.91;77.61;98977.47;5136996;27;20235;-78
2023/04/30 06:47:28;;;;;;;5.40;3.63;;;;;;;15.83;76.39;98979.97;5137426;27;20193;-77
2023/04/30 06:49:56;;;;;;;6.17;3.57;;;;;;;15.93;78.27;98980.69;5138406;27;20223;-77
2023/04/30 06:52:23;;;;;;;5.00;3.60;;;;;;;15.97;73.94;98987.19;5139068;27;20208;-78
2023/04/30 06:54:50;;;;;;;8.03;3.67;;;;;;;15.82;74.61;98984.31;5138084;27;20244;-78
2023/04/30 06:57:17;;;;;;;8.40;4.37;;;;;;;16.07;73.98;98990.47;5138849;27;20198;-78
2023/04/30 06:59:44;;;;;;;9.47;4.00;;;;;;;16.22;75.15;98997.69;5137539;27;20217;-78
2023/04/30 07:02:11;;;;;;;6.53;4.03;;;;;;;16.20;73.15;98997.03;5137801;27;20231;-78
2023/04/30 07:04:37;;;;;;;6.70;3.37;;;;;;;16.38;73.56;98991.88;5137190;27;20235;-78
2023/04/30 07:07:06;;;;;;;6.33;3.93;;;;;;;16.29;74.95;98985.84;5137381;27;20774;-78
2023/04/30 07:09:32;;;;;;;5.00;3.30;;;;;;;15.98;70.72;98988.00;5137902;27;20798;-78
2023/04/30 07:11:59;;;;;;;5.90;3.73;;;;;;;15.98;73.30;98983.63;5138088;27;20197;-78
2023/04/30 07:14:26;;;;;;;5.03;3.60;;;;;;;15.98;71.83;98988.78;5136175;27;20603;-78
2023/04/30 07:16:53;;;;;;;4.20;3.33;;;;;;;15.87;71.57;98990.78;5137518;27;20237;-78
2023/04/30 07:19:20;;;;;;;5.93;3.70;;;;;;;16.07;72.60;98995.63;5137080;27;20217;-78
2023/04/30 07:21:47;;;;;;;7.37;3.63;;;;;;;16.13;73.05;98996.00;5138402;27;20224;-78
2023/04/30 07:24:15;;;;;;;8.80;4.30;;;;;;;16.20;73.03;98991.88;5139525;27;20223;-78
2023/04/30 07:26:42;;;;;;;6.50;3.73;;;;;;;16.41;75.22;98997.53;5139698;27;20237;-78
2023/04/30 07:29:09;;;;;;;9.23;4.73;;;;;;;16.46;73.53;98997.06;5137915;27;20216;-78
2023/04/30 07:31:35;;;;;;;6.40;4.20;;;;;;;16.30;71.13;98993.41;5138839;27;20637;-78
2023/04/30 07:34:02;;;;;;;6.00;3.40;;;;;;;16.92;74.89;98988.19;5137017;27;20224;-78
2023/04/30 07:36:29;;;;;;;4.47;3.23;;;;;;;17.01;67.73;98993.38;5137656;27;20206;-78
2023/04/30 07:38:56;;;;;;;5.87;3.80;;;;;;;16.98;69.77;98992.72;5136802;27;20204;-78
2023/04/30 07:41:25;;;;;;;5.20;3.70;;;;;;;17.03;69.89;98999.22;5136542;27;20238;-78
2023/04/30 07:43:52;;;;;;;5.73;3.37;;;;;;;17.47;67.90;98994.69;5137658;27;20213;-78
2023/04/30 07:46:18;;;;;;;5.43;3.13;;;;;;;18.10;68.96;98998.56;5134923;27;20200;-81
2023/04/30 07:48:45;;;;;;;4.87;3.20;;;;;;;18.39;63.84;98992.09;5141301;27;20273;-81
2023/04/30 07:51:12;;;;;;;6.97;3.40;;;;;;;18.48;61.50;98996.28;5136563;27;20228;-78
2023/04/30 07:53:39;;;;;;;4.67;2.83;;;;;;;18.66;58.21;99004.66;5133856;27;20212;-78
2023/04/30 07:56:07;;;;;;;4.13;2.77;;;;;;;19.27;58.21;99001.59;5133285;27;20218;-78
2023/04/30 07:58:35;;;;;;;4.93;2.50;;;;;;;19.33;56.01;99006.13;5138210;27;20688;-79
2023/04/30 08:01:02;;;;;;;6.90;2.80;;;;;;;19.21;55.80;99009.06;5141511;27;20238;-78
2023/04/30 08:03:29;;;;;;;5.77;3.03;;;;;;;19.25;55.90;99008.75;5135852;27;20203;-77
2023/04/30 08:05:56;;;;;;;4.73;3.17;;;;;;;19.15;56.96;99007.16;5134122;27;20221;-77
2023/04/30 08:08:23;;;;;;;6.23;3.67;;;;;;;19.17;58.68;99004.41;5133954;27;20211;-77
2023/04/30 08:10:50;;;;;;;5.53;3.73;;;;;;;19.71;60.11;98999.28;5133478;27;20722;-77
2023/04/30 08:13:16;;;;;;;6.23;3.97;;;;;;;20.45;61.33;99002.16;5134598;27;20668;-78
2023/04/30 08:15:45;;;;;;;6.10;3.53;;;;;;;21.26;55.08;99004.88;5134016;27;20216;-78
2023/04/30 08:18:12;;;;;;;5.60;3.90;;;;;;;21.43;56.22;99001.09;5132134;27;20203;-79
2023/04/30 08:20:39;;;;;;;5.97;3.33;;;;;;;21.82;53.19;98999.94;5132466;27;20296;-78
2023/04/30 08:23:06;;;;;;;5.30;3.00;;;;;;;21.96;54.41;99005.25;5132952;27;20200;-80
2023/04/30 08:25:33;;;;;;;5.50;3.43;;;;;;;22.19;50.58;99005.09;5132256;27;20285;-80
2023/04/30 08:28:00;;;;;;;7.43;3.88;;;;;;;22.56;52.50;99007.38;5131987;27;20287;-81
2023/04/30 08:30:27;;;;;;;5.00;3.30;;;;;;;22.09;48.74;98995.75;5134235;27;20227;-80
2023/04/30 08:32:55;;;;;;;4.13;2.80;;;;;;;22.02;50.61;99000.13;5138184;27;20226;-81
2023/04/30 08:35:22;;;;;;;4.32;2.80;;;;;;;22.07;48.04;98996.94;5137679;27;20217;-80
2023/04/30 08:37:49;;;;;;;6.18;3.08;;;;;;;22.49;47.77;99006.53;5135719;27;20207;-82
2023/04/30 08:40:16;;;;;;;4.88;2.67;;;;;;;22.93;45.47;98997.56;5135661;27;20273;-81
2023/04/30 08:42:50;;;;;;;4.13;2.80;;;;;;;23.35;44.30;98989.75;5133775;27;20293;-81
2023/04/30 08:45:18;;;;;;;2.38;2.10;;;;;;;23.43;44.91;98992.19;5132205;27;20240;-81
2023/04/30 08:47:46;;;;;;;3.38;2.35;;;;;;;23.57;41.40;98996.44;5133446;27;20341;-80
2023/04/30 08:50:14;;;;;;;4.20;2.10;;;;;;;23.51;43.12;98989.41;5133069;27;20225;-81
2023/04/30 08:52:43;;;;;;;3.28;2.00;;;;;;;23.85;41.14;98991.13;5132767;27;20192;-81
2023/04/30 08:55:11;;;;;;;4.95;2.00;;;;;;;23.78;38.76;98992.09;5132481;27;20654;-80
2023/04/30 08:57:38;;;;;;;3.15;1.98;;;;;;;23.53;38.27;98995.22;5132021;27;20201;-80
2023/04/30 09:00:07;;;;;;;2.60;1.90;;;;;;;23.94;42.03;98989.13;5131125;27;20216;-81
2023/04/30 09:02:34;;;;;;;2.90;2.17;;;;;;;24.29;39.79;98986.28;5131535;27;20228;-81
2023/04/30 09:05:01;;;;;;;2.78;2.33;;;;;;;24.31;39.66;98979.06;5131645;27;20227;-80
2023/04/30 09:07:33;;;;;;;3.60;1.90;;;;;;;24.37;37.29;98980.88;5136787;27;20209;-81
2023/04/30 09:10:00;;;;;;;2.03;1.70;;;;;;;24.03;34.08;98976.66;5137176;27;20209;-81
2023/04/30 09:12:27;;;;;;;3.45;1.85;;;;;;;24.14;36.84;98969.03;5137421;27;20617;-81
2023/04/30 09:15:05;;;;;;;2.92;2.38;;;;;;;24.58;37.38;98970.22;5137028;27;20284;-81
2023/04/30 09:17:33;;;;;;;2.58;1.75;;;;;;;24.86;33.13;98976.97;5134229;27;20249;-82
2023/04/30 09:20:08;;;;;;;4.53;2.03;;;;;;;25.26;35.51;98971.63;5133035;27;20225;-81
2023/04/30 09:22:37;;;;;;;2.38;1.70;;;;;;;24.96;36.95;98966.06;5133086;28;20227;-81
2023/04/30 09:25:05;;;;;;;1.83;1.50;;;;;;;24.51;35.80;98971.22;5133409;27;20743;-81
2023/04/30 09:27:31;;;;;;;1.90;1.67;;;;;;;24.77;35.28;98975.59;5132082;28;20207;-81
2023/04/30 09:29:58;;;;;;;3.70;1.60;;;;;;;24.73;37.29;98971.81;5131870;28;20228;-80
2023/04/30 09:32:25;;;;;;;2.72;1.50;;;;;;;25.35;35.77;98970.38;5131480;27;20197;-80
2023/04/30 09:34:52;;;;;;;2.17;1.48;;;;;;;25.58;35.22;98963.81;5131323;28;20248;-80
2023/04/30 09:37:19;;;;;;;2.88;1.80;;;;;;;24.85;36.82;98970.16;5131414;28;20204;-80
2023/04/30 09:39:53;;;;;;;1.77;1.67;;;;;;;24.55;38.65;98968.03;5135840;27;20221;-81
2023/04/30 09:42:20;;;;;;;2.78;2.00;;;;;;;24.75;36.31;98962.72;5134910;28;20227;-79
2023/04/30 09:44:48;;;;;;;3.53;1.67;;;;;;;24.71;38.73;98955.50;5140228;28;20281;-79
2023/04/30 09:47:16;;;;;;;2.33;1.67;;;;;;;24.71;37.82;98947.66;5136639;28;20200;-80
2023/04/30 09:49:44;;;;;;;1.60;1.50;;;;;;;24.36;37.14;98951.31;5136312;28;20291;-79
2023/04/30 09:52:11;;;;;;;2.58;1.60;;;;;;;25.05;36.15;98942.13;5134945;28;20200;-80
2023/04/30 09:54:38;;;;;;;2.63;1.75;;;;;;;24.99;38.69;98940.31;5132736;28;20217;-80
2023/04/30 09:57:11;;;;;;;2.53;1.55;;;;;;;24.49;38.97;98942.66;5134175;28;20205;-79
2023/04/30 09:59:39;;;;;;;1.98;1.52;;;;;;;24.45;38.73;98936.25;5132609;28;20216;-81
2023/04/30 10:02:07;;;;;;;2.58;1.55;;;;;;;25.10;38.52;98940.66;5132821;28;20228;-79
2023/04/30 10:04:35;;;;;;;3.97;1.70;;;;;;;24.86;37.46;98950.81;5132201;28;20301;-80
2023/04/30 10:07:06;;;;;;;3.92;1.85;;;;;;;24.80;39.15;98942.00;5131630;28;20682;-80
2023/04/30 10:09:40;;;;;;;1.88;1.30;;;;;;;24.60;39.24;98941.25;5132554;27;20952;-79
2023/04/30 10:12:13;;;;;;;2.42;1.67;;;;;;;24.57;38.42;98941.66;5135810;27;20636;-78
2023/04/30 10:14:45;;;;;;;1.50;1.40;;;;;;;24.99;39.30;98945.56;5135955;27;20216;-79
2023/04/30 10:17:17;;;;;;;2.20;1.65;;;;;;;24.81;39.05;98942.78;5134779;27;20201;-78
2023/04/30 10:19:48;;;;;;;1.98;1.58;;;;;;;24.96;38.28;98939.91;5135486;27;20216;-79
2023/04/30 10:22:15;;;;;;;2.10;1.60;;;;;;;24.71;39.34;98939.81;5137529;27;20678;-80
2023/04/30 10:24:43;;;;;;;2.75;1.60;;;;;;;25.57;38.45;98926.34;5139758;27;20305;-79
2023/04/30 10:27:12;;;;;;;2.53;1.52;;;;;;;25.49;38.13;98924.78;5137659;27;20691;-80
2023/04/30 10:29:38;;;;;;;3.00;1.70;;;;;;;25.62;36.41;98923.09;5141564;27;20726;-79
2023/04/30 10:32:07;;;;;;;1.60;1.40;;;;;;;25.50;36.54;98926.38;5138547;27;20245;-79
2023/04/30 10:34:45;;;;;;;2.15;1.55;;;;;;;25.07;36.33;98926.19;5137083;27;20232;-78
2023/04/30 10:37:21;;;;;;;4.10;1.90;;;;;;;25.47;39.07;98913.72;5137308;27;20232;-80
2023/04/30 10:39:48;;;;;;;2.10;1.50;;;;;;;25.62;36.86;98918.66;5136878;27;20226;-79
2023/04/30 10:42:16;;;;;;;2.25;1.70;;;;;;;25.25;37.63;98917.69;5135357;27;20228;-78
2023/04/30 10:44:43;;;;;;;2.72;1.88;;;;;;;24.08;36.66;98912.34;5135693;27;20217;-78
2023/04/30 10:47:10;;;;;;;2.75;1.63;;;;;;;24.84;37.02;98917.06;5135009;27;20203;-78
2023/04/30 10:49:37;;;;;;;6.18;2.20;;;;;;;25.06;37.71;98920.16;5135615;27;20223;-77
2023/04/30 10:52:06;;;;;;;3.40;1.63;;;;;;;25.55;36.33;98906.63;5134695;27;20654;-79
2023/04/30 10:54:35;;;;;;;2.25;1.55;;;;;;;25.65;37.83;98912.97;5137936;27;20663;-79
2023/04/30 10:57:11;;;;;;;1.70;1.60;;;;;;;25.19;35.92;98902.81;5139049;27;20201;-78
2023/04/30 10:59:43;;;;;;;2.22;1.60;;;;;;;25.63;35.02;98909.00;5138028;27;20212;-79
2023/04/30 11:02:11;;;;;;;3.20;1.30;;;;;;;25.60;34.67;98898.94;5138520;27;20268;-78
2023/04/30 11:05:12;;;;;;;2.05;1.83;;;;;;;26.07;37.89;98904.63;5135568;27;20220;-77
2023/04/30 11:07:48;;;;;;;3.50;1.67;;;;;;;25.95;35.69;98897.47;5136300;27;20204;-77
2023/04/30 11:10:15;;;;;;;3.25;1.60;;;;;;;25.64;37.77;98895.69;5135394;27;20255;-78
2023/04/30 11:12:48;;;;;;;2.25;1.60;;;;;;;25.28;34.75;98898.97;5135176;27;20208;-78
2023/04/30 11:15:18;;;;;;;2.33;1.70;;;;;;;25.41;33.65;98901.47;5135648;27;20235;-78
2023/04/30 11:17:46;;;;;;;2.03;1.40;;;;;;;25.08;30.67;98907.69;5134914;27;20574;-78
2023/04/30 11:20:14;;;;;;;1.90;1.42;;;;;;;25.19;32.28;98908.03;5135584;27;20225;-78
2023/04/30 11:22:41;;;;;;;1.20;1.10;;;;;;;25.08;31.18;98907.69;5133776;27;20263;-78
2023/04/30 11:25:11;;;;;;;1.65;1.40;;;;;;;25.72;31.46;98903.28;5135768;27;20224;-79
2023/04/30 11:27:40;;;;;;;1.58;1.40;;;;;;;25.62;33.97;98902.13;5138089;27;20563;-78
2023/04/30 11:30:12;;;;;;;2.38;1.55;;;;;;;24.98;37.04;98902.09;5138049;27;20217;-79
2023/04/30 11:32:40;;;;;;;1.90;1.58;;;;;;;25.81;34.59;98898.56;5138285;27;20273;-79
2023/04/30 11:35:08;;;;;;;2.78;1.40;;;;;;;25.58;33.64;98890.50;5135505;27;20213;-79
2023/04/30 11:37:36;;;;;;;3.30;1.70;;;;;;;25.85;33.54;98881.44;5135201;27;20197;-80